createdAt,value
2018-01-16T01:39:11.023Z,41.67
2018-01-16T01:39:11.529Z,41.67
2018-01-16T01:39:12.129Z,41.67
2018-01-16T01:39:12.729Z,41.77
2018-01-16T01:39:13.338Z,41.67
2018-01-16T01:39:13.929Z,41.49
2018-01-16T01:39:14.527Z,41.49
2018-01-16T01:39:15.126Z,41.77
2018-01-16T01:40:09.590Z,42.05
2018-01-16T01:40:10.160Z,42.05
2018-01-16T01:40:10.757Z,42.05
2018-01-16T01:40:11.358Z,42.15
2018-01-16T01:40:11.956Z,42.15
2018-01-16T01:40:12.556Z,42.05
2018-01-16T01:40:13.158Z,42.24
2018-01-16T01:40:13.756Z,42.15
2018-01-16T01:41:08.264Z,42.24
2018-01-16T01:41:08.857Z,42.43
2018-01-16T01:41:09.437Z,42.15
2018-01-16T01:41:10.035Z,42.34
2018-01-16T01:41:10.630Z,42.05
2018-01-16T01:41:11.231Z,42.15
2018-01-16T01:41:11.830Z,42.05
2018-01-16T01:41:12.430Z,42.24
2018-01-16T01:42:05.917Z,42.43
2018-01-16T01:42:06.487Z,42.43
2018-01-16T01:42:07.085Z,42.43
2018-01-16T01:42:07.687Z,42.34
2018-01-16T01:42:08.286Z,42.34
2018-01-16T01:42:08.887Z,42.43
2018-01-16T01:42:09.485Z,42.34
2018-01-16T01:42:10.085Z,42.24
2018-01-16T01:43:03.572Z,42.63
2018-01-16T01:43:04.140Z,42.53
2018-01-16T01:43:04.739Z,42.53
2018-01-16T01:43:05.337Z,42.53
2018-01-16T01:43:05.936Z,42.34
2018-01-16T01:43:06.537Z,42.63
2018-01-16T01:43:07.138Z,42.53
2018-01-16T01:43:07.736Z,42.53
2018-01-16T01:44:02.244Z,42.43
2018-01-16T01:44:02.815Z,42.53
2018-01-16T01:44:03.413Z,42.63
2018-01-16T01:44:04.029Z,42.72
2018-01-16T01:44:04.614Z,42.63
2018-01-16T01:44:05.214Z,42.63
2018-01-16T01:44:05.814Z,42.63
2018-01-16T01:44:06.414Z,42.53
2018-01-16T01:45:00.001Z,43.29
2018-01-16T01:45:00.570Z,43.29
2018-01-16T01:45:01.168Z,43.38
2018-01-16T01:45:01.775Z,43.38
2018-01-16T01:45:02.371Z,43.38
2018-01-16T01:45:02.969Z,43.38
2018-01-16T01:45:03.568Z,43.38
2018-01-16T01:45:04.168Z,43.29
2018-01-16T01:45:58.162Z,44.14
2018-01-16T01:45:58.738Z,44.14
2018-01-16T01:45:59.332Z,44.14
2018-01-16T01:45:59.932Z,44.05
2018-01-16T01:46:00.532Z,44.24
2018-01-16T01:46:01.132Z,43.86
2018-01-16T01:46:01.733Z,44.05
2018-01-16T01:46:55.304Z,44.14
2018-01-16T01:46:55.872Z,43.76
2018-01-16T01:46:56.472Z,44.05
2018-01-16T01:46:57.072Z,43.86
2018-01-16T01:46:57.673Z,43.86
2018-01-16T01:46:58.273Z,44.14
2018-01-16T01:46:58.873Z,43.86
2018-01-16T01:46:59.471Z,44.53
2018-01-16T01:47:53.978Z,44.34
2018-01-16T01:47:54.548Z,44.53
2018-01-16T01:47:55.148Z,44.34
2018-01-16T01:47:55.748Z,44.14
2018-01-16T01:47:56.348Z,44.34
2018-01-16T01:47:56.952Z,44.24
2018-01-16T01:47:57.548Z,44.34
2018-01-16T01:47:58.147Z,44.24
2018-01-16T01:48:52.654Z,45.38
2018-01-16T01:48:53.224Z,45.47
2018-01-16T01:48:53.823Z,45.76
2018-01-16T01:48:54.422Z,45.76
2018-01-16T01:48:55.025Z,45.85
2018-01-16T01:48:55.623Z,45.95
2018-01-16T01:48:56.223Z,46.14
2018-01-16T01:48:56.822Z,46.33
2018-01-16T01:49:50.307Z,49.46
2018-01-16T01:49:50.881Z,49.46
2018-01-16T01:49:51.477Z,49.37
2018-01-16T01:49:52.075Z,49.74
2018-01-16T01:49:52.676Z,49.84
2018-01-16T01:49:53.275Z,49.84
2018-01-16T01:49:53.875Z,49.74
2018-01-16T01:49:54.476Z,50.03
2018-01-16T01:50:48.982Z,51.36
2018-01-16T01:50:49.551Z,51.74
2018-01-16T01:50:50.151Z,51.55
2018-01-16T01:50:50.751Z,51.64
2018-01-16T01:50:51.352Z,51.74
2018-01-16T01:50:51.951Z,51.36
2018-01-16T01:50:52.549Z,51.36
2018-01-16T01:50:53.151Z,51.17
2018-01-16T01:51:47.656Z,51.83
2018-01-16T01:51:48.228Z,51.74
2018-01-16T01:51:48.826Z,51.55
2018-01-16T01:51:49.426Z,51.55
2018-01-16T01:51:50.028Z,51.55
2018-01-16T01:51:50.626Z,51.74
2018-01-16T01:51:51.227Z,51.64
2018-01-16T01:51:51.827Z,51.93
2018-01-16T01:52:46.339Z,54.87
2018-01-16T01:52:46.904Z,54.78
2018-01-16T01:52:47.503Z,54.78
2018-01-16T01:52:48.104Z,54.87
2018-01-16T01:52:48.702Z,54.87
2018-01-16T01:52:49.302Z,54.78
2018-01-16T01:52:49.903Z,54.78
2018-01-16T01:52:50.502Z,54.68
2018-01-16T01:53:43.989Z,54.87
2018-01-16T01:53:44.554Z,54.87
2018-01-16T01:53:45.155Z,54.97
2018-01-16T01:53:45.756Z,54.97
2018-01-16T01:53:46.353Z,54.87
2018-01-16T01:53:46.954Z,55.06
2018-01-16T01:53:47.553Z,54.97
2018-01-16T01:53:48.193Z,55.06
2018-01-16T01:54:42.661Z,54.87
2018-01-16T01:54:43.230Z,54.87
2018-01-16T01:54:43.831Z,54.68
2018-01-16T01:54:44.430Z,54.68
2018-01-16T01:54:45.030Z,54.58
2018-01-16T01:54:45.629Z,54.87
2018-01-16T01:54:46.231Z,54.78
2018-01-16T01:54:46.829Z,54.87
2018-01-16T01:55:40.314Z,56.10
2018-01-16T01:55:40.883Z,56.29
2018-01-16T01:55:41.485Z,56.29
2018-01-16T01:55:42.083Z,56.29
2018-01-16T01:55:42.682Z,56.01
2018-01-16T01:55:43.282Z,56.20
2018-01-16T01:55:43.882Z,56.20
2018-01-16T01:55:44.481Z,56.10
2018-01-16T01:56:38.986Z,57.06
2018-01-16T01:56:39.559Z,56.58
2018-01-16T01:56:40.159Z,56.58
2018-01-16T01:56:40.757Z,57.06
2018-01-16T01:56:41.357Z,56.58
2018-01-16T01:56:41.957Z,56.68
2018-01-16T01:56:42.556Z,56.58
2018-01-16T01:56:43.157Z,56.68
2018-01-16T01:57:36.643Z,56.58
2018-01-16T01:57:37.210Z,56.58
2018-01-16T01:57:37.813Z,56.49
2018-01-16T01:57:38.414Z,56.58
2018-01-16T01:57:39.013Z,56.58
2018-01-16T01:57:39.609Z,56.49
2018-01-16T01:57:40.208Z,56.58
2018-01-16T01:57:40.810Z,56.49
2018-01-16T01:58:34.292Z,55.91
2018-01-16T01:58:34.862Z,56.10
2018-01-16T01:58:35.465Z,55.82
2018-01-16T01:58:36.062Z,56.10
2018-01-16T01:58:36.662Z,55.82
2018-01-16T01:58:37.263Z,55.82
2018-01-16T01:58:37.862Z,55.82
2018-01-16T01:58:38.465Z,55.82
2018-01-16T01:59:31.943Z,55.54
2018-01-16T01:59:32.514Z,55.54
2018-01-16T01:59:33.114Z,55.54
2018-01-16T01:59:33.712Z,55.35
2018-01-16T01:59:34.313Z,55.35
2018-01-16T01:59:34.913Z,55.35
2018-01-16T01:59:35.512Z,55.35
2018-01-16T01:59:36.112Z,55.35
2018-01-16T02:00:30.619Z,55.35
2018-01-16T02:00:31.190Z,55.54
2018-01-16T02:00:31.787Z,55.54
2018-01-16T02:00:32.389Z,55.44
2018-01-16T02:00:32.994Z,55.91
2018-01-16T02:00:33.588Z,56.01
2018-01-16T02:00:34.188Z,55.82
2018-01-16T02:00:34.790Z,55.25
2018-01-16T02:01:28.272Z,55.35
2018-01-16T02:01:28.842Z,55.44
2018-01-16T02:01:29.441Z,55.44
2018-01-16T02:01:30.041Z,55.44
2018-01-16T02:01:30.640Z,55.35
2018-01-16T02:01:31.241Z,55.44
2018-01-16T02:01:31.841Z,55.35
2018-01-16T02:01:32.445Z,55.35
2018-01-16T02:02:26.944Z,55.73
2018-01-16T02:02:27.517Z,55.44
2018-01-16T02:02:28.117Z,55.82
2018-01-16T02:02:28.714Z,55.63
2018-01-16T02:02:29.316Z,55.73
2018-01-16T02:02:29.914Z,55.63
2018-01-16T02:02:30.514Z,55.73
2018-01-16T02:02:31.116Z,55.91
2018-01-16T02:03:24.703Z,56.68
2018-01-16T02:03:25.271Z,56.58
2018-01-16T02:03:25.871Z,56.29
2018-01-16T02:03:26.471Z,56.29
2018-01-16T02:03:27.070Z,56.29
2018-01-16T02:03:27.670Z,56.39
2018-01-16T02:03:28.270Z,56.49
2018-01-16T02:03:28.871Z,56.49
2018-01-16T02:04:22.353Z,56.58
2018-01-16T02:04:22.932Z,56.58
2018-01-16T02:04:23.521Z,56.49
2018-01-16T02:04:24.127Z,56.68
2018-01-16T02:04:24.721Z,56.58
2018-01-16T02:04:25.320Z,56.58
2018-01-16T02:04:25.923Z,56.68
2018-01-16T02:04:26.522Z,56.68
2018-01-16T02:05:21.026Z,56.39
2018-01-16T02:05:21.601Z,56.01
2018-01-16T02:05:22.199Z,56.29
2018-01-16T02:05:22.797Z,56.10
2018-01-16T02:05:23.396Z,56.20
2018-01-16T02:05:23.997Z,56.20
2018-01-16T02:05:24.596Z,56.20
2018-01-16T02:05:25.198Z,56.10
2018-01-16T02:06:19.708Z,56.10
2018-01-16T02:06:20.272Z,56.10
2018-01-16T02:06:20.875Z,56.10
2018-01-16T02:06:21.473Z,56.01
2018-01-16T02:06:22.071Z,56.01
2018-01-16T02:06:22.672Z,56.29
2018-01-16T02:06:23.271Z,56.20
2018-01-16T02:06:23.872Z,56.10
2018-01-16T02:07:18.383Z,57.81
2018-01-16T02:07:18.955Z,57.72
2018-01-16T02:07:19.549Z,57.91
2018-01-16T02:07:20.149Z,57.53
2018-01-16T02:07:20.749Z,57.72
2018-01-16T02:07:21.349Z,57.62
2018-01-16T02:07:21.948Z,57.53
2018-01-16T02:07:22.548Z,57.91
2018-01-16T02:08:17.060Z,59.14
2018-01-16T02:08:17.624Z,59.05
2018-01-16T02:08:18.227Z,59.14
2018-01-16T02:08:18.824Z,59.14
2018-01-16T02:08:19.423Z,58.95
2018-01-16T02:08:20.023Z,59.05
2018-01-16T02:08:20.624Z,59.05
2018-01-16T02:08:21.223Z,58.76
2018-01-16T02:09:14.713Z,59.05
2018-01-16T02:09:15.278Z,59.05
2018-01-16T02:09:15.877Z,59.52
2018-01-16T02:09:16.479Z,59.14
2018-01-16T02:09:17.077Z,59.14
2018-01-16T02:09:17.679Z,59.33
2018-01-16T02:09:18.275Z,59.43
2018-01-16T02:09:18.874Z,59.52
2018-01-16T02:10:12.358Z,59.24
2018-01-16T02:10:12.931Z,59.14
2018-01-16T02:10:13.530Z,59.14
2018-01-16T02:10:14.127Z,59.14
2018-01-16T02:10:14.728Z,59.33
2018-01-16T02:10:15.331Z,59.33
2018-01-16T02:10:15.926Z,59.33
2018-01-16T02:10:16.528Z,59.14
2018-01-16T02:11:11.035Z,58.29
2018-01-16T02:11:11.604Z,58.10
2018-01-16T02:11:12.204Z,58.29
2018-01-16T02:11:12.804Z,58.29
2018-01-16T02:11:13.414Z,58.39
2018-01-16T02:11:14.004Z,58.48
2018-01-16T02:11:14.602Z,58.48
2018-01-16T02:11:15.203Z,58.48
2018-01-16T02:12:09.710Z,56.87
2018-01-16T02:12:10.279Z,57.06
2018-01-16T02:12:10.879Z,57.15
2018-01-16T02:12:11.479Z,56.96
2018-01-16T02:12:12.079Z,56.68
2018-01-16T02:12:12.679Z,56.49
2018-01-16T02:12:13.277Z,56.96
2018-01-16T02:12:13.877Z,56.58
2018-01-16T02:13:07.362Z,56.29
2018-01-16T02:13:07.931Z,56.29
2018-01-16T02:13:08.530Z,56.29
2018-01-16T02:13:09.131Z,56.29
2018-01-16T02:13:09.731Z,56.29
2018-01-16T02:13:10.331Z,56.29
2018-01-16T02:13:10.930Z,56.29
2018-01-16T02:13:11.532Z,56.49
2018-01-16T02:14:05.116Z,55.63
2018-01-16T02:14:05.686Z,55.54
2018-01-16T02:14:06.286Z,55.63
2018-01-16T02:14:06.885Z,55.82
2018-01-16T02:14:07.484Z,55.91
2018-01-16T02:14:08.086Z,55.73
2018-01-16T02:14:08.687Z,55.82
2018-01-16T02:14:09.287Z,55.82
2018-01-16T02:15:04.303Z,55.54
2018-01-16T02:15:04.875Z,55.82
2018-01-16T02:15:05.472Z,55.82
2018-01-16T02:15:06.071Z,55.35
2018-01-16T02:15:06.672Z,56.10
2018-01-16T02:15:07.272Z,56.10
2018-01-16T02:15:07.871Z,55.82
2018-01-16T02:16:01.444Z,55.73
2018-01-16T02:16:02.014Z,55.73
2018-01-16T02:16:02.620Z,55.73
2018-01-16T02:16:03.214Z,55.44
2018-01-16T02:16:03.813Z,55.54
2018-01-16T02:16:04.412Z,55.73
2018-01-16T02:16:05.012Z,55.73
2018-01-16T02:16:05.612Z,55.54
2018-01-16T02:17:00.117Z,56.01
2018-01-16T02:17:00.688Z,56.01
2018-01-16T02:17:01.288Z,55.54
2018-01-16T02:17:01.887Z,55.91
2018-01-16T02:17:02.487Z,55.91
2018-01-16T02:17:03.089Z,55.73
2018-01-16T02:17:03.692Z,55.73
2018-01-16T02:17:04.286Z,55.73
2018-01-16T02:17:58.795Z,56.77
2018-01-16T02:17:59.363Z,56.68
2018-01-16T02:17:59.962Z,56.77
2018-01-16T02:18:00.563Z,56.68
2018-01-16T02:18:01.166Z,56.58
2018-01-16T02:18:01.764Z,56.58
2018-01-16T02:18:02.368Z,56.68
2018-01-16T02:18:02.961Z,56.58
2018-01-16T02:19:25.630Z,56.49
2018-01-16T02:19:26.201Z,56.77
2018-01-16T02:19:26.799Z,56.49
2018-01-16T02:19:27.398Z,56.77
2018-01-16T02:19:28.000Z,56.49
2018-01-16T02:19:28.599Z,56.58
2018-01-16T02:19:29.199Z,56.49
2018-01-16T02:19:29.799Z,56.58
2018-01-16T02:19:30.397Z,56.77
2018-01-16T02:19:30.999Z,56.39
2018-01-16T02:20:26.044Z,57.62
2018-01-16T02:20:26.616Z,57.62
2018-01-16T02:20:27.215Z,57.62
2018-01-16T02:20:27.815Z,57.72
2018-01-16T02:20:28.425Z,57.72
2018-01-16T02:20:29.015Z,57.72
2018-01-16T02:20:29.620Z,57.62
2018-01-16T02:20:30.218Z,57.53
2018-01-16T02:21:23.704Z,57.91
2018-01-16T02:21:24.268Z,57.81
2018-01-16T02:21:24.867Z,57.81
2018-01-16T02:21:25.468Z,57.81
2018-01-16T02:21:26.067Z,57.91
2018-01-16T02:21:26.667Z,57.72
2018-01-16T02:21:27.268Z,58.10
2018-01-16T02:21:27.866Z,57.72
2018-01-16T02:22:21.350Z,58.10
2018-01-16T02:22:21.919Z,58.00
2018-01-16T02:22:22.524Z,58.10
2018-01-16T02:22:23.121Z,58.20
2018-01-16T02:22:23.716Z,58.00
2018-01-16T02:22:24.317Z,57.91
2018-01-16T02:22:24.918Z,58.20
2018-01-16T02:22:25.516Z,58.00
2018-01-16T02:23:19.520Z,57.72
2018-01-16T02:23:20.088Z,57.72
2018-01-16T02:23:20.682Z,57.62
2018-01-16T02:23:21.282Z,57.43
2018-01-16T02:23:21.881Z,57.81
2018-01-16T02:23:22.482Z,57.62
2018-01-16T02:23:23.081Z,57.62
2018-01-16T02:24:16.657Z,57.91
2018-01-16T02:24:17.224Z,57.81
2018-01-16T02:24:17.822Z,58.00
2018-01-16T02:24:18.434Z,57.81
2018-01-16T02:24:19.023Z,58.00
2018-01-16T02:24:19.623Z,58.20
2018-01-16T02:24:20.223Z,58.58
2018-01-16T02:24:20.823Z,58.58
2018-01-16T02:25:15.327Z,58.48
2018-01-16T02:25:15.898Z,58.48
2018-01-16T02:25:16.498Z,58.48
2018-01-16T02:25:17.097Z,58.48
2018-01-16T02:25:17.699Z,58.48
2018-01-16T02:25:18.299Z,58.48
2018-01-16T02:25:18.898Z,58.48
2018-01-16T02:25:19.497Z,58.48
2018-01-16T02:26:14.002Z,59.05
2018-01-16T02:26:14.574Z,58.58
2018-01-16T02:26:15.173Z,58.76
2018-01-16T02:26:15.776Z,58.58
2018-01-16T02:26:16.375Z,58.58
2018-01-16T02:26:16.974Z,58.76
2018-01-16T02:26:17.572Z,58.86
2018-01-16T02:26:18.172Z,58.67
2018-01-16T02:27:12.680Z,59.24
2018-01-16T02:27:13.249Z,59.33
2018-01-16T02:27:13.849Z,59.24
2018-01-16T02:27:14.450Z,59.27
2018-01-16T02:27:15.049Z,59.27
2018-01-16T02:27:15.651Z,59.33
2018-01-16T02:27:16.247Z,59.17
2018-01-16T02:27:16.847Z,59.14
2018-01-16T02:28:10.330Z,58.86
2018-01-16T02:28:10.902Z,59.14
2018-01-16T02:28:11.501Z,59.14
2018-01-16T02:28:12.101Z,59.17
2018-01-16T02:28:12.700Z,59.24
2018-01-16T02:28:13.302Z,58.95
2018-01-16T02:28:13.901Z,58.95
2018-01-16T02:28:14.502Z,59.08
2018-01-16T02:29:07.984Z,60.10
2018-01-16T02:29:08.553Z,60.10
2018-01-16T02:29:09.154Z,60.28
2018-01-16T02:29:09.752Z,60.19
2018-01-16T02:29:10.354Z,60.19
2018-01-16T02:29:10.953Z,60.03
2018-01-16T02:29:11.553Z,60.03
2018-01-16T02:29:12.154Z,59.91
2018-01-16T02:30:05.637Z,61.83
2018-01-16T02:30:06.208Z,61.83
2018-01-16T02:30:06.805Z,62.37
2018-01-16T02:30:07.408Z,61.99
2018-01-16T02:30:08.011Z,62.08
2018-01-16T02:30:08.605Z,62.56
2018-01-16T02:30:09.204Z,62.37
2018-01-16T02:30:09.810Z,62.56
2018-01-16T02:31:04.310Z,63.54
2018-01-16T02:31:04.883Z,63.60
2018-01-16T02:31:05.480Z,63.60
2018-01-16T02:31:06.080Z,63.54
2018-01-16T02:31:06.682Z,63.42
2018-01-16T02:31:07.291Z,63.42
2018-01-16T02:31:07.879Z,63.42
2018-01-16T02:31:08.478Z,63.42
2018-01-16T02:32:03.503Z,64.84
2018-01-16T02:32:04.069Z,64.84
2018-01-16T02:32:04.667Z,64.84
2018-01-16T02:32:05.269Z,64.84
2018-01-16T02:32:05.867Z,64.87
2018-01-16T02:32:06.470Z,64.84
2018-01-16T02:32:07.068Z,64.69
2018-01-16T02:33:00.639Z,65.60
2018-01-16T02:33:01.209Z,65.50
2018-01-16T02:33:01.807Z,65.63
2018-01-16T02:33:02.407Z,65.22
2018-01-16T02:33:03.006Z,65.31
2018-01-16T02:33:03.608Z,65.12
2018-01-16T02:33:04.208Z,65.22
2018-01-16T02:33:04.810Z,65.12
2018-01-16T02:33:59.315Z,66.93
2018-01-16T02:33:59.884Z,66.83
2018-01-16T02:34:00.482Z,66.83
2018-01-16T02:34:01.084Z,66.74
2018-01-16T02:34:01.683Z,67.02
2018-01-16T02:34:02.283Z,67.02
2018-01-16T02:34:02.881Z,66.93
2018-01-16T02:34:03.480Z,66.93
2018-01-16T02:52:14.900Z,62.37
2018-01-16T02:52:15.465Z,62.46
2018-01-16T02:52:16.065Z,62.27
2018-01-16T02:52:16.664Z,62.56
2018-01-16T02:52:17.263Z,62.66
2018-01-16T02:52:17.863Z,62.08
2018-01-16T02:52:18.465Z,62.56
2018-01-16T02:52:19.066Z,62.46
2018-01-16T02:53:12.548Z,61.23
2018-01-16T02:53:13.118Z,61.04
2018-01-16T02:53:13.717Z,61.04
2018-01-16T02:53:14.338Z,61.14
2018-01-16T02:53:14.914Z,60.95
2018-01-16T02:53:15.518Z,61.04
2018-01-16T02:53:16.118Z,61.14
2018-01-16T02:53:16.716Z,61.23
2018-01-16T02:54:11.224Z,60.38
2018-01-16T02:54:11.795Z,60.66
2018-01-16T02:54:12.397Z,60.38
2018-01-16T02:54:12.992Z,60.66
2018-01-16T02:54:13.592Z,60.66
2018-01-16T02:54:14.191Z,60.76
2018-01-16T02:54:14.791Z,60.85
2018-01-16T02:54:15.392Z,60.85
2018-01-16T02:55:08.875Z,62.56
2018-01-16T02:55:09.447Z,62.56
2018-01-16T02:55:10.045Z,62.37
2018-01-16T02:55:10.644Z,62.37
2018-01-16T02:55:11.245Z,62.85
2018-01-16T02:55:11.845Z,62.94
2018-01-16T02:55:12.445Z,62.66
2018-01-16T02:55:13.044Z,62.75
2018-01-16T02:56:06.528Z,63.42
2018-01-16T02:56:07.098Z,63.70
2018-01-16T02:56:07.697Z,63.60
2018-01-16T02:56:08.297Z,63.60
2018-01-16T02:56:08.896Z,63.51
2018-01-16T02:56:09.498Z,63.79
2018-01-16T02:56:10.097Z,63.51
2018-01-16T02:56:10.696Z,63.89
2018-01-16T02:57:05.202Z,63.98
2018-01-16T02:57:05.772Z,63.89
2018-01-16T02:57:06.371Z,63.98
2018-01-16T02:57:06.972Z,63.89
2018-01-16T02:57:07.573Z,63.98
2018-01-16T02:57:08.172Z,63.89
2018-01-16T02:57:08.771Z,63.89
2018-01-16T02:57:09.371Z,63.79
2018-01-16T02:58:03.879Z,63.51
2018-01-16T02:58:04.449Z,63.51
2018-01-16T02:58:05.048Z,63.42
2018-01-16T02:58:05.648Z,63.42
2018-01-16T02:58:06.247Z,63.70
2018-01-16T02:58:06.849Z,63.79
2018-01-16T02:58:07.447Z,63.70
2018-01-16T02:58:08.048Z,63.70
2018-01-16T02:59:01.531Z,62.27
2018-01-16T02:59:02.101Z,62.27
2018-01-16T02:59:02.701Z,62.27
2018-01-16T02:59:03.303Z,62.18
2018-01-16T02:59:03.904Z,62.27
2018-01-16T02:59:04.501Z,62.27
2018-01-16T02:59:05.101Z,62.18
2018-01-16T02:59:05.701Z,62.27
2018-01-16T03:00:00.209Z,62.27
2018-01-16T03:00:00.781Z,62.27
2018-01-16T03:00:01.379Z,62.27
2018-01-16T03:00:01.977Z,62.27
2018-01-16T03:00:02.586Z,62.27
2018-01-16T03:00:03.179Z,62.37
2018-01-16T03:00:03.778Z,62.37
2018-01-16T03:00:04.377Z,62.37
2018-01-16T03:00:58.882Z,62.18
2018-01-16T03:00:59.455Z,62.27
2018-01-16T03:01:00.052Z,62.27
2018-01-16T03:01:00.650Z,62.18
2018-01-16T03:01:01.252Z,62.18
2018-01-16T03:01:01.852Z,62.27
2018-01-16T03:01:02.451Z,62.37
2018-01-16T03:01:03.050Z,62.18
2018-01-16T03:01:56.534Z,63.23
2018-01-16T03:01:57.106Z,63.04
2018-01-16T03:01:57.703Z,63.13
2018-01-16T03:01:58.304Z,63.13
2018-01-16T03:01:58.904Z,63.23
2018-01-16T03:01:59.503Z,63.13
2018-01-16T03:02:00.104Z,63.13
2018-01-16T03:02:00.704Z,63.23
2018-01-16T03:02:54.187Z,63.70
2018-01-16T03:02:54.756Z,63.51
2018-01-16T03:02:55.359Z,63.70
2018-01-16T03:02:55.955Z,63.60
2018-01-16T03:02:56.558Z,63.89
2018-01-16T03:02:57.156Z,63.42
2018-01-16T03:02:57.756Z,63.79
2018-01-16T03:02:58.354Z,63.42
2018-01-16T03:03:52.860Z,64.84
2018-01-16T03:03:53.432Z,64.94
2018-01-16T03:03:54.031Z,64.84
2018-01-16T03:03:54.633Z,64.46
2018-01-16T03:03:55.235Z,64.27
2018-01-16T03:03:55.831Z,64.27
2018-01-16T03:03:56.430Z,64.27
2018-01-16T03:03:57.031Z,64.46
2018-01-16T03:04:50.518Z,64.56
2018-01-16T03:04:51.085Z,64.27
2018-01-16T03:04:51.686Z,64.94
2018-01-16T03:04:52.283Z,64.46
2018-01-16T03:04:52.882Z,64.46
2018-01-16T03:04:53.484Z,64.65
2018-01-16T03:04:54.083Z,64.84
2018-01-16T03:04:54.685Z,64.84
2018-01-16T03:05:49.209Z,65.60
2018-01-16T03:05:49.759Z,65.60
2018-01-16T03:05:50.360Z,65.69
2018-01-16T03:05:50.958Z,65.79
2018-01-16T03:05:51.559Z,65.60
2018-01-16T03:05:52.158Z,65.69
2018-01-16T03:05:52.758Z,65.69
2018-01-16T03:05:53.358Z,65.60
2018-01-16T03:06:49.532Z,66.83
2018-01-16T03:06:50.030Z,66.83
2018-01-16T03:06:50.610Z,66.83
2018-01-16T03:06:51.213Z,66.64
2018-01-16T03:06:51.773Z,66.64
2018-01-16T03:06:52.435Z,66.46
2018-01-16T03:07:46.543Z,67.59
2018-01-16T03:07:47.113Z,67.12
2018-01-16T03:07:47.712Z,67.50
2018-01-16T03:07:48.311Z,67.59
2018-01-16T03:07:48.911Z,67.40
2018-01-16T03:07:49.510Z,67.40
2018-01-16T03:07:50.111Z,67.50
2018-01-16T03:07:50.709Z,67.31
2018-01-16T03:08:44.194Z,68.07
2018-01-16T03:08:44.762Z,68.73
2018-01-16T03:08:45.362Z,67.97
2018-01-16T03:08:45.962Z,68.16
2018-01-16T03:08:46.564Z,68.07
2018-01-16T03:08:47.161Z,67.88
2018-01-16T03:08:47.760Z,68.44
2018-01-16T03:08:48.360Z,68.54
2018-01-16T03:09:42.869Z,68.54
2018-01-16T03:09:43.438Z,68.44
2018-01-16T03:09:44.038Z,68.16
2018-01-16T03:09:44.638Z,68.26
2018-01-16T03:09:45.238Z,68.44
2018-01-16T03:09:45.838Z,68.44
2018-01-16T03:09:46.438Z,68.26
2018-01-16T03:09:47.037Z,68.26
2018-01-16T03:10:40.519Z,69.11
2018-01-16T03:10:41.090Z,69.30
2018-01-16T03:10:41.693Z,69.11
2018-01-16T03:10:42.290Z,68.92
2018-01-16T03:10:42.889Z,68.92
2018-01-16T03:10:43.496Z,69.21
2018-01-16T03:10:44.090Z,69.40
2018-01-16T03:10:44.689Z,69.11
2018-01-16T03:11:38.173Z,69.96
2018-01-16T03:11:38.741Z,69.96
2018-01-16T03:11:39.343Z,69.68
2018-01-16T03:11:39.941Z,70.15
2018-01-16T03:11:40.542Z,70.15
2018-01-16T03:11:41.140Z,69.96
2018-01-16T03:11:41.740Z,70.06
2018-01-16T03:11:42.343Z,70.15
2018-01-16T03:12:36.847Z,71.20
2018-01-16T03:12:37.415Z,71.30
2018-01-16T03:12:38.018Z,71.67
2018-01-16T03:12:38.617Z,71.77
2018-01-16T03:12:39.216Z,71.58
2018-01-16T03:12:39.815Z,71.58
2018-01-16T03:12:40.416Z,71.86
2018-01-16T03:12:41.015Z,71.86
2018-01-16T03:13:47.198Z,74.43
2018-01-16T03:13:47.770Z,74.33
2018-01-16T03:13:48.370Z,74.52
2018-01-16T03:13:48.968Z,74.24
2018-01-16T03:13:49.571Z,74.24
2018-01-16T03:13:50.165Z,74.43
2018-01-16T03:13:50.764Z,74.62
2018-01-16T03:13:51.363Z,74.15
2018-01-16T03:14:44.858Z,74.43
2018-01-16T03:14:45.419Z,74.52
2018-01-16T03:14:46.018Z,74.33
2018-01-16T03:14:46.616Z,74.24
2018-01-16T03:14:47.218Z,74.24
2018-01-16T03:14:47.817Z,74.24
2018-01-16T03:14:48.418Z,74.24
2018-01-16T03:14:49.028Z,74.43
2018-01-16T03:15:42.499Z,73.48
2018-01-16T03:15:43.070Z,73.48
2018-01-16T03:15:43.669Z,73.19
2018-01-16T03:15:44.269Z,73.29
2018-01-16T03:15:44.869Z,73.29
2018-01-16T03:15:45.469Z,73.19
2018-01-16T03:15:46.069Z,73.19
2018-01-16T03:15:46.671Z,73.10
2018-01-16T03:16:40.153Z,73.67
2018-01-16T03:16:40.724Z,73.86
2018-01-16T03:16:41.322Z,73.67
2018-01-16T03:16:41.922Z,73.57
2018-01-16T03:16:42.522Z,73.67
2018-01-16T03:16:43.122Z,73.86
2018-01-16T03:16:43.722Z,73.67
2018-01-16T03:16:44.321Z,73.57
2018-01-16T03:17:38.826Z,72.91
2018-01-16T03:17:39.397Z,72.72
2018-01-16T03:17:39.996Z,72.72
2018-01-16T03:17:40.598Z,72.53
2018-01-16T03:17:41.197Z,72.63
2018-01-16T03:17:41.796Z,72.81
2018-01-16T03:17:42.396Z,72.81
2018-01-16T03:17:42.996Z,72.81
2018-01-16T03:18:36.477Z,73.10
2018-01-16T03:18:37.049Z,72.91
2018-01-16T03:18:37.649Z,72.81
2018-01-16T03:18:38.250Z,72.91
2018-01-16T03:18:38.849Z,72.91
2018-01-16T03:18:39.448Z,73.00
2018-01-16T03:18:40.048Z,73.19
2018-01-16T03:18:40.649Z,72.91
2018-01-16T03:19:34.131Z,72.15
2018-01-16T03:19:34.700Z,72.06
2018-01-16T03:19:35.301Z,72.25
2018-01-16T03:19:35.903Z,71.96
2018-01-16T03:19:36.500Z,72.15
2018-01-16T03:19:37.099Z,72.06
2018-01-16T03:19:37.701Z,71.86
2018-01-16T03:19:38.299Z,72.15
2018-01-16T03:20:31.782Z,71.67
2018-01-16T03:20:32.351Z,71.67
2018-01-16T03:20:32.952Z,71.55
2018-01-16T03:20:33.556Z,71.67
2018-01-16T03:20:34.152Z,71.48
2018-01-16T03:20:34.751Z,71.45
2018-01-16T03:20:35.351Z,71.67
2018-01-16T03:20:35.950Z,71.64
2018-01-16T03:21:29.432Z,71.20
2018-01-16T03:21:30.007Z,70.98
2018-01-16T03:21:30.602Z,71.17
2018-01-16T03:21:31.202Z,70.92
2018-01-16T03:21:31.802Z,71.20
2018-01-16T03:21:32.402Z,71.20
2018-01-16T03:21:33.002Z,71.20
2018-01-16T03:21:33.602Z,70.92
2018-01-16T03:22:27.088Z,71.26
2018-01-16T03:22:27.655Z,71.39
2018-01-16T03:22:28.255Z,71.39
2018-01-16T03:22:28.857Z,71.26
2018-01-16T03:22:29.455Z,71.39
2018-01-16T03:22:30.055Z,71.39
2018-01-16T03:22:30.655Z,71.11
2018-01-16T03:22:31.256Z,71.39
2018-01-16T03:23:24.739Z,70.92
2018-01-16T03:23:25.308Z,70.88
2018-01-16T03:23:25.907Z,70.50
2018-01-16T03:23:26.507Z,70.92
2018-01-16T03:23:27.107Z,70.92
2018-01-16T03:23:27.707Z,70.98
2018-01-16T03:23:28.307Z,70.50
2018-01-16T03:23:28.909Z,70.88
2018-01-16T03:24:22.389Z,69.36
2018-01-16T03:24:22.960Z,69.68
2018-01-16T03:24:23.560Z,69.46
2018-01-16T03:24:24.159Z,69.36
2018-01-16T03:24:24.759Z,69.36
2018-01-16T03:24:25.358Z,69.84
2018-01-16T03:24:25.960Z,69.55
2018-01-16T03:24:26.557Z,69.65
2018-01-16T03:25:21.133Z,69.08
2018-01-16T03:25:21.640Z,69.08
2018-01-16T03:25:22.240Z,69.21
2018-01-16T03:25:22.840Z,69.11
2018-01-16T03:25:23.443Z,69.21
2018-01-16T03:25:24.038Z,69.02
2018-01-16T03:25:24.639Z,69.08
2018-01-16T03:25:25.238Z,69.08
2018-01-16T03:26:19.739Z,67.85
2018-01-16T03:26:20.311Z,67.75
2018-01-16T03:26:20.910Z,67.59
2018-01-16T03:26:21.510Z,68.70
2018-01-16T03:26:22.110Z,67.59
2018-01-16T03:26:22.710Z,67.59
2018-01-16T03:26:23.309Z,67.79
2018-01-16T03:26:23.908Z,67.69
2018-01-16T03:27:17.393Z,67.02
2018-01-16T03:27:17.964Z,67.59
2018-01-16T03:27:18.564Z,67.50
2018-01-16T03:27:19.162Z,67.18
2018-01-16T03:27:19.762Z,67.50
2018-01-16T03:27:20.362Z,67.59
2018-01-16T03:27:20.961Z,67.75
2018-01-16T03:27:21.562Z,67.69
2018-01-16T03:28:15.148Z,67.65
2018-01-16T03:28:15.717Z,67.79
2018-01-16T03:28:16.315Z,67.79
2018-01-16T03:28:16.917Z,67.40
2018-01-16T03:28:17.516Z,67.65
2018-01-16T03:28:18.117Z,67.69
2018-01-16T03:28:18.715Z,67.40
2018-01-16T03:28:19.316Z,67.40
2018-01-16T03:29:12.799Z,67.02
2018-01-16T03:29:13.368Z,66.64
2018-01-16T03:29:13.967Z,66.74
2018-01-16T03:29:14.567Z,66.64
2018-01-16T03:29:15.167Z,66.64
2018-01-16T03:29:15.768Z,66.74
2018-01-16T03:29:16.368Z,67.02
2018-01-16T03:29:16.967Z,66.93
2018-01-16T03:30:10.451Z,67.50
2018-01-16T03:30:11.022Z,67.69
2018-01-16T03:30:11.621Z,67.21
2018-01-16T03:30:12.220Z,67.88
2018-01-16T03:30:12.819Z,67.79
2018-01-16T03:30:13.422Z,67.69
2018-01-16T03:30:14.021Z,67.59
2018-01-16T03:30:14.619Z,67.79
2018-01-16T03:31:08.103Z,67.79